sensor_id;sensor_type;location;lat;lon;timestamp;pressure;altitude;pressure_sealevel;temperature;humidity
77147;BME280;66121;52.584;9.694;2023-09-18T00:01:19;100722.38;;;17.82;100.00
77147;BME280;66121;52.584;9.694;2023-09-18T00:04:05;100710.63;;;17.71;100.00
77147;BME280;66121;52.584;9.694;2023-09-18T00:06:51;100717.72;;;17.75;100.00
77147;BME280;66121;52.584;9.694;2023-09-18T00:09:37;100724.44;;;17.78;100.00
77147;BME280;66121;52.584;9.694;2023-09-18T00:12:23;100723.78;;;17.90;100.00
77147;BME280;66121;52.584;9.694;2023-09-18T00:15:09;100716.97;;;17.91;100.00
77147;BME280;66121;52.584;9.694;2023-09-18T00:17:54;100707.25;;;17.99;100.00
77147;BME280;66121;52.584;9.694;2023-09-18T00:20:40;100706.03;;;18.16;100.00
77147;BME280;66121;52.584;9.694;2023-09-18T00:23:27;100697.38;;;18.11;100.00
77147;BME280;66121;52.584;9.694;2023-09-18T00:26:12;100692.94;;;18.13;100.00
77147;BME280;66121;52.584;9.694;2023-09-18T00:29:01;100692.75;;;18.04;100.00
77147;BME280;66121;52.584;9.694;2023-09-18T00:31:47;100676.19;;;17.97;100.00
77147;BME280;66121;52.584;9.694;2023-09-18T00:34:32;100673.50;;;17.74;100.00
77147;BME280;66121;52.584;9.694;2023-09-18T00:37:18;100667.06;;;17.77;100.00
77147;BME280;66121;52.584;9.694;2023-09-18T00:40:05;100664.72;;;17.91;100.00
77147;BME280;66121;52.584;9.694;2023-09-18T00:42:51;100656.69;;;17.77;100.00
77147;BME280;66121;52.584;9.694;2023-09-18T00:45:42;100654.91;;;17.67;100.00
77147;BME280;66121;52.584;9.694;2023-09-18T00:48:29;100649.81;;;17.42;100.00
77147;BME280;66121;52.584;9.694;2023-09-18T00:51:16;100632.25;;;17.26;100.00
77147;BME280;66121;52.584;9.694;2023-09-18T00:54:02;100623.31;;;17.15;100.00
77147;BME280;66121;52.584;9.694;2023-09-18T00:56:47;100625.69;;;17.16;100.00
77147;BME280;66121;52.584;9.694;2023-09-18T00:59:34;100626.53;;;17.13;100.00
77147;BME280;66121;52.584;9.694;2023-09-18T01:02:19;100623.22;;;17.18;100.00
77147;BME280;66121;52.584;9.694;2023-09-18T01:05:06;100616.16;;;17.14;100.00
77147;BME280;66121;52.584;9.694;2023-09-18T01:07:52;100614.22;;;17.11;100.00
77147;BME280;66121;52.584;9.694;2023-09-18T01:10:47;100613.72;;;17.16;100.00
77147;BME280;66121;52.584;9.694;2023-09-18T01:13:37;100619.25;;;17.19;100.00
77147;BME280;66121;52.584;9.694;2023-09-18T01:16:30;100613.50;;;17.26;100.00
77147;BME280;66121;52.584;9.694;2023-09-18T01:19:34;100614.38;;;17.23;100.00
77147;BME280;66121;52.584;9.694;2023-09-18T01:22:21;100603.72;;;17.18;100.00
77147;BME280;66121;52.584;9.694;2023-09-18T01:25:08;100598.94;;;17.19;100.00
77147;BME280;66121;52.584;9.694;2023-09-18T01:27:53;100598.44;;;17.24;100.00
77147;BME280;66121;52.584;9.694;2023-09-18T01:30:39;100605.22;;;17.23;100.00
77147;BME280;66121;52.584;9.694;2023-09-18T01:33:26;100595.56;;;17.27;100.00
77147;BME280;66121;52.584;9.694;2023-09-18T01:36:13;100585.47;;;17.33;100.00
77147;BME280;66121;52.584;9.694;2023-09-18T01:39:00;100570.03;;;17.29;100.00
77147;BME280;66121;52.584;9.694;2023-09-18T01:41:46;100577.59;;;17.28;100.00
77147;BME280;66121;52.584;9.694;2023-09-18T01:44:33;100585.28;;;17.24;100.00
77147;BME280;66121;52.584;9.694;2023-09-18T01:47:20;100566.91;;;17.27;100.00
77147;BME280;66121;52.584;9.694;2023-09-18T01:50:07;100559.53;;;17.17;100.00
77147;BME280;66121;52.584;9.694;2023-09-18T01:52:53;100572.34;;;17.14;100.00
77147;BME280;66121;52.584;9.694;2023-09-18T01:55:38;100576.69;;;17.15;100.00
77147;BME280;66121;52.584;9.694;2023-09-18T01:58:24;100561.69;;;17.09;100.00
77147;BME280;66121;52.584;9.694;2023-09-18T02:01:10;100578.22;;;17.20;100.00
77147;BME280;66121;52.584;9.694;2023-09-18T02:03:55;100568.06;;;17.10;100.00
77147;BME280;66121;52.584;9.694;2023-09-18T02:06:41;100568.41;;;17.12;100.00
77147;BME280;66121;52.584;9.694;2023-09-18T02:09:27;100559.81;;;17.03;100.00
77147;BME280;66121;52.584;9.694;2023-09-18T02:12:12;100538.03;;;16.98;100.00
77147;BME280;66121;52.584;9.694;2023-09-18T02:15:02;100548.31;;;17.01;100.00
77147;BME280;66121;52.584;9.694;2023-09-18T02:17:52;100540.31;;;17.03;100.00
77147;BME280;66121;52.584;9.694;2023-09-18T02:20:40;100533.97;;;17.02;100.00
77147;BME280;66121;52.584;9.694;2023-09-18T02:23:26;100532.88;;;17.16;100.00
77147;BME280;66121;52.584;9.694;2023-09-18T02:26:12;100531.81;;;17.10;100.00
77147;BME280;66121;52.584;9.694;2023-09-18T02:29:00;100535.13;;;17.05;100.00
77147;BME280;66121;52.584;9.694;2023-09-18T02:31:46;100519.25;;;17.02;100.00
77147;BME280;66121;52.584;9.694;2023-09-18T02:34:31;100519.41;;;16.95;100.00
77147;BME280;66121;52.584;9.694;2023-09-18T02:37:17;100514.69;;;16.92;100.00
77147;BME280;66121;52.584;9.694;2023-09-18T02:40:03;100523.84;;;16.92;100.00
77147;BME280;66121;52.584;9.694;2023-09-18T02:42:50;100524.69;;;16.89;100.00
77147;BME280;66121;52.584;9.694;2023-09-18T02:45:36;100514.03;;;16.84;100.00
77147;BME280;66121;52.584;9.694;2023-09-18T02:48:21;100515.97;;;16.87;100.00
77147;BME280;66121;52.584;9.694;2023-09-18T02:51:07;100514.19;;;16.97;100.00
77147;BME280;66121;52.584;9.694;2023-09-18T02:53:53;100511.69;;;16.83;100.00
77147;BME280;66121;52.584;9.694;2023-09-18T02:56:39;100508.13;;;16.82;100.00
77147;BME280;66121;52.584;9.694;2023-09-18T02:59:24;100522.06;;;16.82;100.00
77147;BME280;66121;52.584;9.694;2023-09-18T03:02:10;100497.47;;;16.77;100.00
77147;BME280;66121;52.584;9.694;2023-09-18T03:04:56;100514.38;;;16.86;100.00
77147;BME280;66121;52.584;9.694;2023-09-18T03:07:42;100502.91;;;16.84;100.00
77147;BME280;66121;52.584;9.694;2023-09-18T03:10:27;100503.59;;;16.88;100.00
77147;BME280;66121;52.584;9.694;2023-09-18T03:13:14;100499.31;;;16.84;100.00
77147;BME280;66121;52.584;9.694;2023-09-18T03:16:00;100501.13;;;16.74;100.00
77147;BME280;66121;52.584;9.694;2023-09-18T03:18:46;100499.97;;;16.71;100.00
77147;BME280;66121;52.584;9.694;2023-09-18T03:21:31;100480.19;;;16.66;100.00
77147;BME280;66121;52.584;9.694;2023-09-18T03:24:18;100482.47;;;16.71;100.00
77147;BME280;66121;52.584;9.694;2023-09-18T03:27:04;100474.38;;;16.77;100.00
77147;BME280;66121;52.584;9.694;2023-09-18T03:29:50;100480.81;;;16.73;100.00
77147;BME280;66121;52.584;9.694;2023-09-18T03:32:35;100478.81;;;16.74;100.00
77147;BME280;66121;52.584;9.694;2023-09-18T03:35:21;100471.75;;;16.69;100.00
77147;BME280;66121;52.584;9.694;2023-09-18T03:38:07;100454.59;;;16.71;100.00
77147;BME280;66121;52.584;9.694;2023-09-18T03:40:52;100458.97;;;16.72;100.00
77147;BME280;66121;52.584;9.694;2023-09-18T03:43:38;100457.38;;;16.71;100.00
77147;BME280;66121;52.584;9.694;2023-09-18T03:46:24;100457.81;;;16.69;100.00
77147;BME280;66121;52.584;9.694;2023-09-18T03:49:09;100441.53;;;16.68;100.00
77147;BME280;66121;52.584;9.694;2023-09-18T03:51:55;100441.47;;;16.71;100.00
77147;BME280;66121;52.584;9.694;2023-09-18T03:54:41;100423.09;;;16.74;100.00
77147;BME280;66121;52.584;9.694;2023-09-18T03:57:28;100427.38;;;16.79;100.00
77147;BME280;66121;52.584;9.694;2023-09-18T04:00:14;100426.44;;;16.85;100.00
77147;BME280;66121;52.584;9.694;2023-09-18T04:02:59;100420.88;;;16.85;100.00
77147;BME280;66121;52.584;9.694;2023-09-18T04:05:45;100409.97;;;16.91;100.00
77147;BME280;66121;52.584;9.694;2023-09-18T04:08:31;100407.97;;;16.91;100.00
77147;BME280;66121;52.584;9.694;2023-09-18T04:11:17;100401.25;;;16.89;100.00
77147;BME280;66121;52.584;9.694;2023-09-18T04:14:04;100402.50;;;16.88;100.00
77147;BME280;66121;52.584;9.694;2023-09-18T04:16:50;100393.00;;;16.85;100.00
77147;BME280;66121;52.584;9.694;2023-09-18T04:19:35;100398.03;;;16.90;100.00
77147;BME280;66121;52.584;9.694;2023-09-18T04:22:21;100389.25;;;16.92;100.00
77147;BME280;66121;52.584;9.694;2023-09-18T04:25:07;100372.72;;;16.85;100.00
77147;BME280;66121;52.584;9.694;2023-09-18T04:27:52;100377.94;;;16.83;100.00
77147;BME280;66121;52.584;9.694;2023-09-18T04:30:39;100356.66;;;16.72;100.00
77147;BME280;66121;52.584;9.694;2023-09-18T04:33:24;100353.94;;;16.69;100.00
77147;BME280;66121;52.584;9.694;2023-09-18T04:36:10;100358.72;;;16.68;100.00
77147;BME280;66121;52.584;9.694;2023-09-18T04:38:56;100355.03;;;16.75;100.00
77147;BME280;66121;52.584;9.694;2023-09-18T04:41:42;100357.53;;;16.69;100.00
77147;BME280;66121;52.584;9.694;2023-09-18T04:44:27;100350.09;;;16.63;100.00
77147;BME280;66121;52.584;9.694;2023-09-18T04:47:13;100344.19;;;16.61;100.00
77147;BME280;66121;52.584;9.694;2023-09-18T04:49:59;100340.03;;;16.69;100.00
77147;BME280;66121;52.584;9.694;2023-09-18T04:52:44;100329.03;;;16.62;100.00
77147;BME280;66121;52.584;9.694;2023-09-18T04:55:30;100329.84;;;16.62;100.00
77147;BME280;66121;52.584;9.694;2023-09-18T04:58:17;100330.56;;;16.99;100.00
77147;BME280;66121;52.584;9.694;2023-09-18T05:01:03;100324.00;;;17.05;100.00
77147;BME280;66121;52.584;9.694;2023-09-18T05:03:51;100307.47;;;16.98;100.00
77147;BME280;66121;52.584;9.694;2023-09-18T05:06:37;100308.94;;;17.03;100.00
77147;BME280;66121;52.584;9.694;2023-09-18T05:09:24;100305.28;;;17.06;100.00
77147;BME280;66121;52.584;9.694;2023-09-18T05:12:10;100300.94;;;17.05;100.00
77147;BME280;66121;52.584;9.694;2023-09-18T05:14:59;100288.13;;;16.91;100.00
77147;BME280;66121;52.584;9.694;2023-09-18T05:17:47;100295.38;;;16.89;100.00
77147;BME280;66121;52.584;9.694;2023-09-18T05:20:34;100292.50;;;16.92;100.00
77147;BME280;66121;52.584;9.694;2023-09-18T05:23:19;100299.72;;;16.90;100.00
77147;BME280;66121;52.584;9.694;2023-09-18T05:26:05;100293.63;;;16.95;100.00
77147;BME280;66121;52.584;9.694;2023-09-18T05:28:51;100294.31;;;16.99;100.00
77147;BME280;66121;52.584;9.694;2023-09-18T05:31:36;100290.41;;;17.12;100.00
77147;BME280;66121;52.584;9.694;2023-09-18T05:34:22;100285.44;;;17.20;100.00
77147;BME280;66121;52.584;9.694;2023-09-18T05:37:08;100275.22;;;17.29;100.00
77147;BME280;66121;52.584;9.694;2023-09-18T05:39:54;100262.75;;;17.34;100.00
77147;BME280;66121;52.584;9.694;2023-09-18T05:42:41;100267.09;;;17.35;100.00
77147;BME280;66121;52.584;9.694;2023-09-18T05:45:31;100269.09;;;17.34;100.00
77147;BME280;66121;52.584;9.694;2023-09-18T05:48:17;100284.53;;;17.39;100.00
77147;BME280;66121;52.584;9.694;2023-09-18T05:51:03;100296.28;;;17.47;100.00
77147;BME280;66121;52.584;9.694;2023-09-18T05:53:49;100270.03;;;17.44;100.00
77147;BME280;66121;52.584;9.694;2023-09-18T05:56:35;100273.00;;;17.53;100.00
77147;BME280;66121;52.584;9.694;2023-09-18T05:59:20;100286.31;;;17.62;100.00
77147;BME280;66121;52.584;9.694;2023-09-18T06:02:06;100278.88;;;17.71;100.00
77147;BME280;66121;52.584;9.694;2023-09-18T06:04:55;100267.75;;;17.84;100.00
77147;BME280;66121;52.584;9.694;2023-09-18T06:07:43;100257.72;;;17.86;100.00
77147;BME280;66121;52.584;9.694;2023-09-18T06:10:30;100250.69;;;17.94;100.00
77147;BME280;66121;52.584;9.694;2023-09-18T06:13:16;100251.38;;;17.98;100.00
77147;BME280;66121;52.584;9.694;2023-09-18T06:16:01;100246.81;;;18.05;100.00
77147;BME280;66121;52.584;9.694;2023-09-18T06:18:52;100258.97;;;18.11;100.00
77147;BME280;66121;52.584;9.694;2023-09-18T06:21:38;100255.00;;;18.24;100.00
77147;BME280;66121;52.584;9.694;2023-09-18T06:24:24;100229.72;;;18.28;100.00
77147;BME280;66121;52.584;9.694;2023-09-18T06:27:10;100228.59;;;18.38;100.00
77147;BME280;66121;52.584;9.694;2023-09-18T06:30:00;100207.41;;;18.53;100.00
77147;BME280;66121;52.584;9.694;2023-09-18T06:32:45;100184.25;;;18.65;100.00
77147;BME280;66121;52.584;9.694;2023-09-18T06:35:31;100173.06;;;18.65;100.00
77147;BME280;66121;52.584;9.694;2023-09-18T06:38:25;100166.56;;;18.68;100.00
77147;BME280;66121;52.584;9.694;2023-09-18T06:41:11;100175.03;;;18.77;100.00
77147;BME280;66121;52.584;9.694;2023-09-18T06:43:57;100169.13;;;18.75;100.00
77147;BME280;66121;52.584;9.694;2023-09-18T06:46:42;100160.84;;;18.84;100.00
77147;BME280;66121;52.584;9.694;2023-09-18T06:49:28;100169.97;;;18.85;100.00
77147;BME280;66121;52.584;9.694;2023-09-18T06:52:14;100164.22;;;18.79;100.00
77147;BME280;66121;52.584;9.694;2023-09-18T06:54:59;100181.41;;;18.78;100.00
77147;BME280;66121;52.584;9.694;2023-09-18T06:57:50;100172.72;;;18.76;100.00
77147;BME280;66121;52.584;9.694;2023-09-18T07:00:37;100169.00;;;18.79;100.00
77147;BME280;66121;52.584;9.694;2023-09-18T07:03:25;100171.06;;;18.65;100.00
77147;BME280;66121;52.584;9.694;2023-09-18T07:06:11;100171.84;;;18.66;100.00
77147;BME280;66121;52.584;9.694;2023-09-18T07:08:57;100177.09;;;18.64;100.00
77147;BME280;66121;52.584;9.694;2023-09-18T07:11:43;100187.16;;;18.74;100.00
77147;BME280;66121;52.584;9.694;2023-09-18T07:14:37;100183.66;;;18.70;100.00
77147;BME280;66121;52.584;9.694;2023-09-18T07:17:26;100164.56;;;18.69;100.00
77147;BME280;66121;52.584;9.694;2023-09-18T07:20:19;100194.16;;;18.79;100.00
77147;BME280;66121;52.584;9.694;2023-09-18T07:23:12;100150.94;;;18.58;100.00
77147;BME280;66121;52.584;9.694;2023-09-18T07:25:59;100148.16;;;18.58;100.00
77147;BME280;66121;52.584;9.694;2023-09-18T07:29:03;100151.28;;;18.60;100.00
77147;BME280;66121;52.584;9.694;2023-09-18T07:31:49;100138.34;;;18.53;100.00
77147;BME280;66121;52.584;9.694;2023-09-18T07:34:44;100174.91;;;18.93;100.00
77147;BME280;66121;52.584;9.694;2023-09-18T07:37:40;100177.19;;;19.07;100.00
77147;BME280;66121;52.584;9.694;2023-09-18T07:40:26;100125.69;;;18.96;100.00
77147;BME280;66121;52.584;9.694;2023-09-18T07:43:14;100123.28;;;19.07;100.00
77147;BME280;66121;52.584;9.694;2023-09-18T07:46:02;100178.91;;;19.70;100.00
77147;BME280;66121;52.584;9.694;2023-09-18T07:49:03;100123.47;;;19.56;98.22
77147;BME280;66121;52.584;9.694;2023-09-18T07:51:57;100163.22;;;19.72;99.54
77147;BME280;66121;52.584;9.694;2023-09-18T07:54:55;100154.53;;;19.79;97.39
77147;BME280;66121;52.584;9.694;2023-09-18T07:57:41;100177.09;;;20.07;96.05
77147;BME280;66121;52.584;9.694;2023-09-18T08:00:27;100205.97;;;20.56;94.01
77147;BME280;66121;52.584;9.694;2023-09-18T08:03:12;100203.97;;;20.75;93.15
77147;BME280;66121;52.584;9.694;2023-09-18T08:05:58;100203.22;;;20.92;93.26
77147;BME280;66121;52.584;9.694;2023-09-18T08:08:44;100201.09;;;21.05;92.45
77147;BME280;66121;52.584;9.694;2023-09-18T08:11:29;100210.16;;;21.18;91.15
77147;BME280;66121;52.584;9.694;2023-09-18T08:14:16;100198.13;;;21.36;90.57
77147;BME280;66121;52.584;9.694;2023-09-18T08:17:03;100202.66;;;21.43;90.17
77147;BME280;66121;52.584;9.694;2023-09-18T08:19:51;100181.75;;;21.44;91.21
77147;BME280;66121;52.584;9.694;2023-09-18T08:22:38;100192.31;;;21.67;88.16
77147;BME280;66121;52.584;9.694;2023-09-18T08:25:24;100200.69;;;21.94;89.08
77147;BME280;66121;52.584;9.694;2023-09-18T08:28:09;100201.47;;;22.04;86.88
77147;BME280;66121;52.584;9.694;2023-09-18T08:30:55;100194.72;;;22.10;86.31
77147;BME280;66121;52.584;9.694;2023-09-18T08:33:42;100191.41;;;22.54;84.75
77147;BME280;66121;52.584;9.694;2023-09-18T08:36:28;100199.94;;;23.16;81.91
77147;BME280;66121;52.584;9.694;2023-09-18T08:39:15;100191.78;;;23.56;81.58
77147;BME280;66121;52.584;9.694;2023-09-18T08:42:05;100179.16;;;23.66;79.89
77147;BME280;66121;52.584;9.694;2023-09-18T08:44:53;100169.91;;;23.51;79.46
77147;BME280;66121;52.584;9.694;2023-09-18T08:47:40;100169.91;;;23.36;78.99
77147;BME280;66121;52.584;9.694;2023-09-18T08:50:26;100149.06;;;23.19;79.78
77147;BME280;66121;52.584;9.694;2023-09-18T08:53:13;100142.84;;;23.00;80.97
77147;BME280;66121;52.584;9.694;2023-09-18T08:55:59;100136.84;;;23.07;81.33
77147;BME280;66121;52.584;9.694;2023-09-18T08:58:47;100132.66;;;23.03;79.98
77147;BME280;66121;52.584;9.694;2023-09-18T09:01:33;100132.91;;;22.90;81.53
77147;BME280;66121;52.584;9.694;2023-09-18T09:04:18;100115.91;;;22.85;81.82
77147;BME280;66121;52.584;9.694;2023-09-18T09:07:04;100101.69;;;22.88;82.55
77147;BME280;66121;52.584;9.694;2023-09-18T09:09:50;100106.31;;;22.91;81.88
77147;BME280;66121;52.584;9.694;2023-09-18T09:12:52;100101.13;;;23.14;81.29
77147;BME280;66121;52.584;9.694;2023-09-18T09:15:46;100103.94;;;23.14;82.95
77147;BME280;66121;52.584;9.694;2023-09-18T09:18:32;100108.69;;;23.07;82.72
77147;BME280;66121;52.584;9.694;2023-09-18T09:21:18;100099.28;;;23.11;79.61
77147;BME280;66121;52.584;9.694;2023-09-18T09:24:04;100097.75;;;23.24;79.27
77147;BME280;66121;52.584;9.694;2023-09-18T09:26:58;100097.94;;;23.21;80.27
77147;BME280;66121;52.584;9.694;2023-09-18T09:30:00;100105.16;;;23.36;78.36
77147;BME280;66121;52.584;9.694;2023-09-18T09:32:50;100105.72;;;23.26;79.20
77147;BME280;66121;52.584;9.694;2023-09-18T09:35:37;100097.53;;;23.13;78.95
77147;BME280;66121;52.584;9.694;2023-09-18T09:38:31;100105.78;;;23.17;78.87
77147;BME280;66121;52.584;9.694;2023-09-18T09:41:17;100105.22;;;23.13;80.25
77147;BME280;66121;52.584;9.694;2023-09-18T09:44:04;100094.13;;;23.09;79.45
77147;BME280;66121;52.584;9.694;2023-09-18T09:46:51;100109.47;;;23.08;80.00
77147;BME280;66121;52.584;9.694;2023-09-18T09:49:47;100104.41;;;22.97;79.44
77147;BME280;66121;52.584;9.694;2023-09-18T09:52:33;100089.63;;;22.88;77.85
77147;BME280;66121;52.584;9.694;2023-09-18T09:58:10;100098.75;;;22.83;78.66
77147;BME280;66121;52.584;9.694;2023-09-18T10:00:58;100106.28;;;22.77;79.29
77147;BME280;66121;52.584;9.694;2023-09-18T10:03:48;100093.78;;;22.78;79.29
77147;BME280;66121;52.584;9.694;2023-09-18T10:06:35;100107.66;;;22.81;78.93
77147;BME280;66121;52.584;9.694;2023-09-18T10:09:22;100128.47;;;22.98;79.27
77147;BME280;66121;52.584;9.694;2023-09-18T10:12:15;100105.19;;;22.98;78.07
77147;BME280;66121;52.584;9.694;2023-09-18T10:15:07;100104.50;;;23.03;78.74
77147;BME280;66121;52.584;9.694;2023-09-18T10:17:56;100111.78;;;22.95;78.46
77147;BME280;66121;52.584;9.694;2023-09-18T10:20:45;100109.03;;;22.86;79.65
77147;BME280;66121;52.584;9.694;2023-09-18T10:23:46;100118.47;;;22.97;80.90
77147;BME280;66121;52.584;9.694;2023-09-18T10:26:50;100118.22;;;23.10;79.92
77147;BME280;66121;52.584;9.694;2023-09-18T10:29:36;100119.47;;;23.24;77.34
77147;BME280;66121;52.584;9.694;2023-09-18T10:32:22;100118.38;;;23.45;77.87
77147;BME280;66121;52.584;9.694;2023-09-18T10:35:10;100127.38;;;23.49;78.50
77147;BME280;66121;52.584;9.694;2023-09-18T10:37:58;100121.19;;;23.45;77.59
77147;BME280;66121;52.584;9.694;2023-09-18T10:40:47;100121.63;;;23.29;76.89
77147;BME280;66121;52.584;9.694;2023-09-18T10:43:33;100117.81;;;23.02;78.22
77147;BME280;66121;52.584;9.694;2023-09-18T10:46:19;100127.84;;;22.80;80.13
77147;BME280;66121;52.584;9.694;2023-09-18T10:49:05;100129.06;;;22.79;79.34
77147;BME280;66121;52.584;9.694;2023-09-18T10:51:54;100122.50;;;22.82;82.02
77147;BME280;66121;52.584;9.694;2023-09-18T10:54:40;100131.97;;;22.93;79.69
77147;BME280;66121;52.584;9.694;2023-09-18T10:57:26;100130.69;;;22.94;79.05
77147;BME280;66121;52.584;9.694;2023-09-18T11:00:13;100137.94;;;22.86;80.46
77147;BME280;66121;52.584;9.694;2023-09-18T11:03:29;100131.47;;;22.95;79.04
77147;BME280;66121;52.584;9.694;2023-09-18T11:06:15;100114.69;;;23.00;80.42
77147;BME280;66121;52.584;9.694;2023-09-18T11:09:07;100138.22;;;23.27;79.72
77147;BME280;66121;52.584;9.694;2023-09-18T11:12:03;100146.94;;;23.29;80.49
77147;BME280;66121;52.584;9.694;2023-09-18T11:14:56;100156.84;;;23.24;77.69
77147;BME280;66121;52.584;9.694;2023-09-18T11:17:42;100161.13;;;23.20;79.38
77147;BME280;66121;52.584;9.694;2023-09-18T11:20:28;100159.53;;;23.04;78.93
77147;BME280;66121;52.584;9.694;2023-09-18T11:26:03;100137.72;;;23.14;76.18
77147;BME280;66121;52.584;9.694;2023-09-18T11:28:51;100150.75;;;23.26;76.82
77147;BME280;66121;52.584;9.694;2023-09-18T11:31:51;100145.97;;;23.55;75.35
77147;BME280;66121;52.584;9.694;2023-09-18T11:34:39;100140.41;;;23.61;74.25
77147;BME280;66121;52.584;9.694;2023-09-18T11:37:26;100141.78;;;23.80;74.59
77147;BME280;66121;52.584;9.694;2023-09-18T11:40:31;100140.88;;;23.89;73.46
77147;BME280;66121;52.584;9.694;2023-09-18T11:43:27;100140.31;;;23.70;74.18
77147;BME280;66121;52.584;9.694;2023-09-18T11:46:20;100136.59;;;23.79;73.94
77147;BME280;66121;52.584;9.694;2023-09-18T11:49:11;100126.81;;;23.74;73.80
77147;BME280;66121;52.584;9.694;2023-09-18T11:51:58;100124.78;;;23.60;75.90
77147;BME280;66121;52.584;9.694;2023-09-18T11:54:44;100120.28;;;23.39;75.24
77147;BME280;66121;52.584;9.694;2023-09-18T11:57:35;100125.19;;;23.38;76.49
77147;BME280;66121;52.584;9.694;2023-09-18T12:00:21;100113.66;;;23.27;76.70
77147;BME280;66121;52.584;9.694;2023-09-18T12:03:22;100107.13;;;23.21;76.52
77147;BME280;66121;52.584;9.694;2023-09-18T12:06:11;100097.44;;;23.22;75.89
77147;BME280;66121;52.584;9.694;2023-09-18T12:08:58;100114.06;;;23.35;77.29
77147;BME280;66121;52.584;9.694;2023-09-18T12:11:44;100110.84;;;23.27;76.90
77147;BME280;66121;52.584;9.694;2023-09-18T12:14:33;100111.97;;;23.06;75.53
77147;BME280;66121;52.584;9.694;2023-09-18T12:17:19;100116.25;;;23.16;77.68
77147;BME280;66121;52.584;9.694;2023-09-18T12:20:05;100127.63;;;23.22;76.68
77147;BME280;66121;52.584;9.694;2023-09-18T12:22:51;100131.66;;;23.06;76.84
77147;BME280;66121;52.584;9.694;2023-09-18T12:25:38;100131.78;;;23.12;78.27
77147;BME280;66121;52.584;9.694;2023-09-18T12:28:24;100141.31;;;23.14;78.18
77147;BME280;66121;52.584;9.694;2023-09-18T12:31:13;100143.34;;;23.14;78.83
77147;BME280;66121;52.584;9.694;2023-09-18T12:33:59;100151.03;;;23.13;80.78
77147;BME280;66121;52.584;9.694;2023-09-18T12:36:45;100119.91;;;22.93;78.31
77147;BME280;66121;52.584;9.694;2023-09-18T12:39:34;100134.81;;;23.08;79.05
77147;BME280;66121;52.584;9.694;2023-09-18T12:42:20;100131.50;;;23.09;78.28
77147;BME280;66121;52.584;9.694;2023-09-18T12:45:09;100128.78;;;23.15;77.30
77147;BME280;66121;52.584;9.694;2023-09-18T12:47:57;100122.66;;;23.17;77.07
77147;BME280;66121;52.584;9.694;2023-09-18T12:50:43;100107.91;;;23.07;75.08
77147;BME280;66121;52.584;9.694;2023-09-18T12:53:29;100109.78;;;22.86;75.47
77147;BME280;66121;52.584;9.694;2023-09-18T12:56:15;100090.47;;;22.79;76.15
77147;BME280;66121;52.584;9.694;2023-09-18T12:59:01;100097.00;;;22.85;75.90
77147;BME280;66121;52.584;9.694;2023-09-18T13:01:49;100093.91;;;22.83;77.92
77147;BME280;66121;52.584;9.694;2023-09-18T13:04:36;100087.00;;;22.84;76.97
77147;BME280;66121;52.584;9.694;2023-09-18T13:07:23;100079.22;;;22.79;79.59
77147;BME280;66121;52.584;9.694;2023-09-18T13:10:09;100088.53;;;22.71;77.32
77147;BME280;66121;52.584;9.694;2023-09-18T13:12:55;100081.91;;;22.74;77.29
77147;BME280;66121;52.584;9.694;2023-09-18T13:15:41;100083.66;;;22.71;78.26
77147;BME280;66121;52.584;9.694;2023-09-18T13:18:27;100077.63;;;22.64;77.55
77147;BME280;66121;52.584;9.694;2023-09-18T13:21:13;100063.63;;;22.55;76.61
77147;BME280;66121;52.584;9.694;2023-09-18T13:24:05;100070.19;;;22.52;77.22
77147;BME280;66121;52.584;9.694;2023-09-18T13:26:52;100071.47;;;22.51;77.02
77147;BME280;66121;52.584;9.694;2023-09-18T13:29:38;100080.97;;;22.53;77.66
77147;BME280;66121;52.584;9.694;2023-09-18T13:32:24;100073.91;;;22.58;76.20
77147;BME280;66121;52.584;9.694;2023-09-18T13:35:10;100071.84;;;22.43;78.62
77147;BME280;66121;52.584;9.694;2023-09-18T13:37:59;100089.59;;;22.50;77.52
77147;BME280;66121;52.584;9.694;2023-09-18T13:40:46;100084.91;;;22.46;77.73
77147;BME280;66121;52.584;9.694;2023-09-18T13:43:32;100073.28;;;22.54;77.60
77147;BME280;66121;52.584;9.694;2023-09-18T13:46:20;100076.97;;;22.69;75.77
77147;BME280;66121;52.584;9.694;2023-09-18T13:49:06;100069.91;;;22.73;75.69
77147;BME280;66121;52.584;9.694;2023-09-18T13:51:52;100073.41;;;22.68;76.21
77147;BME280;66121;52.584;9.694;2023-09-18T13:54:37;100074.31;;;23.03;74.65
77147;BME280;66121;52.584;9.694;2023-09-18T13:57:23;100080.16;;;23.88;72.23
77147;BME280;66121;52.584;9.694;2023-09-18T14:00:09;100081.31;;;23.81;69.67
77147;BME280;66121;52.584;9.694;2023-09-18T14:02:57;100089.56;;;23.99;70.45
77147;BME280;66121;52.584;9.694;2023-09-18T14:05:43;100086.44;;;24.12;69.76
77147;BME280;66121;52.584;9.694;2023-09-18T14:08:29;100086.78;;;23.85;71.63
77147;BME280;66121;52.584;9.694;2023-09-18T14:11:14;100076.81;;;23.54;72.02
77147;BME280;66121;52.584;9.694;2023-09-18T14:14:01;100070.84;;;23.82;71.62
77147;BME280;66121;52.584;9.694;2023-09-18T14:16:46;100055.91;;;23.46;71.32
77147;BME280;66121;52.584;9.694;2023-09-18T14:19:32;100048.09;;;23.36;72.07
77147;BME280;66121;52.584;9.694;2023-09-18T14:22:18;100035.41;;;23.17;72.58
77147;BME280;66121;52.584;9.694;2023-09-18T14:25:04;100052.50;;;23.13;73.41
77147;BME280;66121;52.584;9.694;2023-09-18T14:27:51;100057.53;;;23.24;72.89
77147;BME280;66121;52.584;9.694;2023-09-18T14:30:36;100064.44;;;23.08;73.17
77147;BME280;66121;52.584;9.694;2023-09-18T14:33:22;100062.09;;;22.92;73.80
77147;BME280;66121;52.584;9.694;2023-09-18T14:36:08;100053.06;;;22.88;73.77